sensor_id;sensor_type;location;lat;lon;timestamp;P1;durP1;ratioP1;P2;durP2;ratioP2
9076;SDS011;4574;51.072;17.174;2023-06-14T00:02:23;5.90;;;3.87;;
9076;SDS011;4574;51.072;17.174;2023-06-14T00:04:53;8.00;;;4.10;;
9076;SDS011;4574;51.072;17.174;2023-06-14T00:07:32;8.47;;;4.07;;
9076;SDS011;4574;51.072;17.174;2023-06-14T00:10:01;5.60;;;4.30;;
9076;SDS011;4574;51.072;17.174;2023-06-14T00:12:30;4.60;;;3.97;;
9076;SDS011;4574;51.072;17.174;2023-06-14T00:14:58;5.30;;;4.33;;
9076;SDS011;4574;51.072;17.174;2023-06-14T00:17:28;6.03;;;4.20;;
9076;SDS011;4574;51.072;17.174;2023-06-14T00:19:58;5.83;;;3.90;;
9076;SDS011;4574;51.072;17.174;2023-06-14T00:22:26;4.73;;;4.20;;
9076;SDS011;4574;51.072;17.174;2023-06-14T00:25:00;7.03;;;3.93;;
9076;SDS011;4574;51.072;17.174;2023-06-14T00:27:48;5.17;;;3.67;;
9076;SDS011;4574;51.072;17.174;2023-06-14T00:30:16;7.07;;;3.67;;
9076;SDS011;4574;51.072;17.174;2023-06-14T00:32:44;4.37;;;3.67;;
9076;SDS011;4574;51.072;17.174;2023-06-14T00:35:14;5.73;;;3.87;;
9076;SDS011;4574;51.072;17.174;2023-06-14T00:37:43;6.93;;;4.43;;
9076;SDS011;4574;51.072;17.174;2023-06-14T00:40:11;5.33;;;4.60;;
9076;SDS011;4574;51.072;17.174;2023-06-14T00:42:40;6.47;;;4.80;;
9076;SDS011;4574;51.072;17.174;2023-06-14T00:45:09;6.80;;;5.17;;
9076;SDS011;4574;51.072;17.174;2023-06-14T00:47:37;6.00;;;4.43;;
9076;SDS011;4574;51.072;17.174;2023-06-14T00:50:06;5.23;;;4.10;;
9076;SDS011;4574;51.072;17.174;2023-06-14T00:52:36;5.70;;;4.53;;
9076;SDS011;4574;51.072;17.174;2023-06-14T00:55:05;6.77;;;4.50;;
9076;SDS011;4574;51.072;17.174;2023-06-14T00:57:33;6.47;;;4.53;;
9076;SDS011;4574;51.072;17.174;2023-06-14T01:00:04;5.00;;;4.40;;
9076;SDS011;4574;51.072;17.174;2023-06-14T01:02:36;6.40;;;4.60;;
9076;SDS011;4574;51.072;17.174;2023-06-14T01:05:05;7.73;;;4.37;;
9076;SDS011;4574;51.072;17.174;2023-06-14T01:07:39;5.60;;;3.90;;
9076;SDS011;4574;51.072;17.174;2023-06-14T01:10:12;6.30;;;3.67;;
9076;SDS011;4574;51.072;17.174;2023-06-14T01:12:44;4.90;;;3.87;;
9076;SDS011;4574;51.072;17.174;2023-06-14T01:15:15;5.23;;;4.10;;
9076;SDS011;4574;51.072;17.174;2023-06-14T01:17:44;6.13;;;4.00;;
9076;SDS011;4574;51.072;17.174;2023-06-14T01:20:13;8.40;;;4.00;;
9076;SDS011;4574;51.072;17.174;2023-06-14T01:22:50;4.07;;;3.67;;
9076;SDS011;4574;51.072;17.174;2023-06-14T01:25:18;4.03;;;3.57;;
9076;SDS011;4574;51.072;17.174;2023-06-14T01:27:49;4.23;;;3.70;;
9076;SDS011;4574;51.072;17.174;2023-06-14T01:30:18;5.57;;;3.60;;
9076;SDS011;4574;51.072;17.174;2023-06-14T01:32:47;5.10;;;3.60;;
9076;SDS011;4574;51.072;17.174;2023-06-14T01:35:17;5.10;;;3.50;;
9076;SDS011;4574;51.072;17.174;2023-06-14T01:37:46;4.40;;;3.63;;
9076;SDS011;4574;51.072;17.174;2023-06-14T01:40:17;5.60;;;3.97;;
9076;SDS011;4574;51.072;17.174;2023-06-14T01:42:46;5.73;;;3.70;;
9076;SDS011;4574;51.072;17.174;2023-06-14T01:45:15;3.87;;;3.57;;
9076;SDS011;4574;51.072;17.174;2023-06-14T01:47:44;5.60;;;3.97;;
9076;SDS011;4574;51.072;17.174;2023-06-14T01:50:12;4.60;;;3.67;;
9076;SDS011;4574;51.072;17.174;2023-06-14T01:52:41;4.97;;;3.80;;
9076;SDS011;4574;51.072;17.174;2023-06-14T01:55:09;6.07;;;4.27;;
9076;SDS011;4574;51.072;17.174;2023-06-14T01:57:39;5.20;;;3.80;;
9076;SDS011;4574;51.072;17.174;2023-06-14T02:00:08;4.93;;;4.10;;
9076;SDS011;4574;51.072;17.174;2023-06-14T02:02:39;6.20;;;4.03;;
9076;SDS011;4574;51.072;17.174;2023-06-14T02:05:08;6.83;;;4.20;;
9076;SDS011;4574;51.072;17.174;2023-06-14T02:07:38;5.17;;;4.20;;
9076;SDS011;4574;51.072;17.174;2023-06-14T02:10:06;5.90;;;4.10;;
9076;SDS011;4574;51.072;17.174;2023-06-14T02:12:34;6.83;;;3.87;;
9076;SDS011;4574;51.072;17.174;2023-06-14T02:15:05;5.63;;;3.83;;
9076;SDS011;4574;51.072;17.174;2023-06-14T02:17:33;6.50;;;3.67;;
9076;SDS011;4574;51.072;17.174;2023-06-14T02:20:02;5.40;;;4.10;;
9076;SDS011;4574;51.072;17.174;2023-06-14T02:22:31;4.47;;;3.77;;
9076;SDS011;4574;51.072;17.174;2023-06-14T02:24:59;5.30;;;4.10;;
9076;SDS011;4574;51.072;17.174;2023-06-14T02:27:28;4.87;;;3.80;;
9076;SDS011;4574;51.072;17.174;2023-06-14T02:29:56;5.30;;;4.37;;
9076;SDS011;4574;51.072;17.174;2023-06-14T02:32:26;4.40;;;4.00;;
9076;SDS011;4574;51.072;17.174;2023-06-14T02:34:54;4.37;;;3.83;;
9076;SDS011;4574;51.072;17.174;2023-06-14T02:37:23;5.00;;;3.97;;
9076;SDS011;4574;51.072;17.174;2023-06-14T02:39:51;5.90;;;3.90;;
9076;SDS011;4574;51.072;17.174;2023-06-14T02:42:20;5.53;;;4.70;;
9076;SDS011;4574;51.072;17.174;2023-06-14T02:44:48;5.13;;;3.97;;
9076;SDS011;4574;51.072;17.174;2023-06-14T02:47:18;7.17;;;4.47;;
9076;SDS011;4574;51.072;17.174;2023-06-14T02:49:47;6.27;;;4.60;;
9076;SDS011;4574;51.072;17.174;2023-06-14T02:52:15;5.27;;;4.17;;
9076;SDS011;4574;51.072;17.174;2023-06-14T02:54:43;9.43;;;4.10;;
9076;SDS011;4574;51.072;17.174;2023-06-14T02:57:12;5.77;;;4.43;;
9076;SDS011;4574;51.072;17.174;2023-06-14T02:59:40;5.57;;;4.23;;
9076;SDS011;4574;51.072;17.174;2023-06-14T03:02:08;4.30;;;3.87;;
9076;SDS011;4574;51.072;17.174;2023-06-14T03:04:36;8.00;;;4.23;;
9076;SDS011;4574;51.072;17.174;2023-06-14T03:07:06;6.03;;;4.03;;
9076;SDS011;4574;51.072;17.174;2023-06-14T03:09:35;4.83;;;4.10;;
9076;SDS011;4574;51.072;17.174;2023-06-14T03:12:05;12.00;;;4.47;;
9076;SDS011;4574;51.072;17.174;2023-06-14T03:14:33;6.20;;;4.83;;
9076;SDS011;4574;51.072;17.174;2023-06-14T03:17:01;10.43;;;4.40;;
9076;SDS011;4574;51.072;17.174;2023-06-14T03:19:31;4.80;;;4.07;;
9076;SDS011;4574;51.072;17.174;2023-06-14T03:21:59;7.07;;;4.87;;
9076;SDS011;4574;51.072;17.174;2023-06-14T03:24:30;5.80;;;4.60;;
9076;SDS011;4574;51.072;17.174;2023-06-14T03:27:03;7.70;;;5.20;;
9076;SDS011;4574;51.072;17.174;2023-06-14T03:29:32;7.33;;;5.50;;
9076;SDS011;4574;51.072;17.174;2023-06-14T03:32:00;7.20;;;5.70;;
9076;SDS011;4574;51.072;17.174;2023-06-14T03:34:28;6.07;;;4.97;;
9076;SDS011;4574;51.072;17.174;2023-06-14T03:36:57;7.03;;;4.73;;
9076;SDS011;4574;51.072;17.174;2023-06-14T03:39:25;7.57;;;4.77;;
9076;SDS011;4574;51.072;17.174;2023-06-14T03:41:54;5.63;;;4.13;;
9076;SDS011;4574;51.072;17.174;2023-06-14T03:44:22;5.33;;;4.33;;
9076;SDS011;4574;51.072;17.174;2023-06-14T03:46:51;7.23;;;4.63;;
9076;SDS011;4574;51.072;17.174;2023-06-14T03:49:19;7.63;;;4.60;;
9076;SDS011;4574;51.072;17.174;2023-06-14T03:51:48;5.03;;;4.27;;
9076;SDS011;4574;51.072;17.174;2023-06-14T03:54:18;4.77;;;4.27;;
9076;SDS011;4574;51.072;17.174;2023-06-14T03:56:49;5.90;;;4.97;;
9076;SDS011;4574;51.072;17.174;2023-06-14T03:59:19;4.97;;;4.17;;
9076;SDS011;4574;51.072;17.174;2023-06-14T04:01:47;5.57;;;4.73;;
9076;SDS011;4574;51.072;17.174;2023-06-14T04:04:16;6.80;;;4.73;;
9076;SDS011;4574;51.072;17.174;2023-06-14T04:06:45;6.67;;;4.60;;
9076;SDS011;4574;51.072;17.174;2023-06-14T04:09:15;6.23;;;4.93;;
9076;SDS011;4574;51.072;17.174;2023-06-14T04:11:44;5.43;;;4.60;;
9076;SDS011;4574;51.072;17.174;2023-06-14T04:14:12;5.83;;;5.13;;
9076;SDS011;4574;51.072;17.174;2023-06-14T04:16:41;5.83;;;4.97;;
9076;SDS011;4574;51.072;17.174;2023-06-14T04:19:09;5.93;;;4.77;;
9076;SDS011;4574;51.072;17.174;2023-06-14T04:21:38;8.43;;;4.70;;
9076;SDS011;4574;51.072;17.174;2023-06-14T04:24:06;6.93;;;4.97;;
9076;SDS011;4574;51.072;17.174;2023-06-14T04:26:41;5.33;;;4.83;;
9076;SDS011;4574;51.072;17.174;2023-06-14T04:29:11;6.07;;;5.37;;
9076;SDS011;4574;51.072;17.174;2023-06-14T04:31:42;5.97;;;5.17;;
9076;SDS011;4574;51.072;17.174;2023-06-14T04:34:11;6.73;;;4.70;;
9076;SDS011;4574;51.072;17.174;2023-06-14T04:36:43;6.77;;;5.00;;
9076;SDS011;4574;51.072;17.174;2023-06-14T04:39:16;7.43;;;5.50;;
9076;SDS011;4574;51.072;17.174;2023-06-14T04:41:45;10.27;;;4.90;;
9076;SDS011;4574;51.072;17.174;2023-06-14T04:44:13;7.70;;;5.50;;
9076;SDS011;4574;51.072;17.174;2023-06-14T04:46:45;7.30;;;5.13;;
9076;SDS011;4574;51.072;17.174;2023-06-14T04:49:14;9.27;;;5.50;;
9076;SDS011;4574;51.072;17.174;2023-06-14T04:51:43;6.77;;;5.37;;
9076;SDS011;4574;51.072;17.174;2023-06-14T04:54:12;9.50;;;5.57;;
9076;SDS011;4574;51.072;17.174;2023-06-14T04:56:41;7.60;;;5.40;;
9076;SDS011;4574;51.072;17.174;2023-06-14T04:59:10;6.63;;;5.30;;
9076;SDS011;4574;51.072;17.174;2023-06-14T05:01:39;8.17;;;5.27;;
9076;SDS011;4574;51.072;17.174;2023-06-14T05:04:09;7.37;;;6.57;;
9076;SDS011;4574;51.072;17.174;2023-06-14T05:06:37;6.93;;;5.70;;
9076;SDS011;4574;51.072;17.174;2023-06-14T05:09:05;7.80;;;5.80;;
9076;SDS011;4574;51.072;17.174;2023-06-14T05:11:33;7.07;;;6.00;;
9076;SDS011;4574;51.072;17.174;2023-06-14T05:14:01;7.77;;;5.97;;
9076;SDS011;4574;51.072;17.174;2023-06-14T05:16:30;6.10;;;5.30;;
9076;SDS011;4574;51.072;17.174;2023-06-14T05:18:58;6.17;;;5.57;;
9076;SDS011;4574;51.072;17.174;2023-06-14T05:21:27;9.00;;;6.43;;
9076;SDS011;4574;51.072;17.174;2023-06-14T05:23:55;7.07;;;5.90;;
9076;SDS011;4574;51.072;17.174;2023-06-14T05:26:24;8.03;;;5.87;;
9076;SDS011;4574;51.072;17.174;2023-06-14T05:28:55;8.10;;;6.30;;
9076;SDS011;4574;51.072;17.174;2023-06-14T05:31:24;7.97;;;6.40;;
9076;SDS011;4574;51.072;17.174;2023-06-14T05:33:52;14.20;;;7.07;;
9076;SDS011;4574;51.072;17.174;2023-06-14T05:36:21;9.83;;;7.87;;
9076;SDS011;4574;51.072;17.174;2023-06-14T05:38:51;8.00;;;7.07;;
9076;SDS011;4574;51.072;17.174;2023-06-14T05:41:24;10.70;;;8.20;;
9076;SDS011;4574;51.072;17.174;2023-06-14T05:43:53;8.90;;;7.20;;
9076;SDS011;4574;51.072;17.174;2023-06-14T05:46:22;8.50;;;6.97;;
9076;SDS011;4574;51.072;17.174;2023-06-14T05:48:52;8.80;;;7.60;;
9076;SDS011;4574;51.072;17.174;2023-06-14T05:51:21;10.03;;;8.10;;
9076;SDS011;4574;51.072;17.174;2023-06-14T05:53:53;10.80;;;7.23;;
9076;SDS011;4574;51.072;17.174;2023-06-14T05:56:21;9.60;;;7.67;;
9076;SDS011;4574;51.072;17.174;2023-06-14T05:58:49;10.93;;;8.03;;
9076;SDS011;4574;51.072;17.174;2023-06-14T06:01:18;13.00;;;9.13;;
9076;SDS011;4574;51.072;17.174;2023-06-14T06:03:46;12.93;;;9.13;;
9076;SDS011;4574;51.072;17.174;2023-06-14T06:06:15;14.37;;;10.53;;
9076;SDS011;4574;51.072;17.174;2023-06-14T06:08:43;11.33;;;10.07;;
9076;SDS011;4574;51.072;17.174;2023-06-14T06:11:13;15.00;;;10.60;;
9076;SDS011;4574;51.072;17.174;2023-06-14T06:13:41;13.60;;;10.90;;
9076;SDS011;4574;51.072;17.174;2023-06-14T06:16:09;14.23;;;10.27;;
9076;SDS011;4574;51.072;17.174;2023-06-14T06:18:37;14.17;;;11.57;;
9076;SDS011;4574;51.072;17.174;2023-06-14T06:21:07;17.27;;;12.00;;
9076;SDS011;4574;51.072;17.174;2023-06-14T06:23:35;15.53;;;10.90;;
9076;SDS011;4574;51.072;17.174;2023-06-14T06:26:03;13.50;;;10.47;;
9076;SDS011;4574;51.072;17.174;2023-06-14T06:28:33;14.23;;;11.77;;
9076;SDS011;4574;51.072;17.174;2023-06-14T06:31:01;15.43;;;11.70;;
9076;SDS011;4574;51.072;17.174;2023-06-14T06:33:30;16.40;;;11.73;;
9076;SDS011;4574;51.072;17.174;2023-06-14T06:35:58;15.83;;;11.30;;
9076;SDS011;4574;51.072;17.174;2023-06-14T06:38:27;16.10;;;11.40;;
9076;SDS011;4574;51.072;17.174;2023-06-14T06:40:55;20.30;;;11.57;;
9076;SDS011;4574;51.072;17.174;2023-06-14T06:43:23;15.90;;;11.00;;
9076;SDS011;4574;51.072;17.174;2023-06-14T06:45:53;17.17;;;11.40;;
9076;SDS011;4574;51.072;17.174;2023-06-14T06:48:21;16.33;;;11.60;;
9076;SDS011;4574;51.072;17.174;2023-06-14T06:50:49;13.83;;;11.20;;
9076;SDS011;4574;51.072;17.174;2023-06-14T06:53:18;16.63;;;12.03;;
9076;SDS011;4574;51.072;17.174;2023-06-14T06:56:04;14.03;;;11.00;;
9076;SDS011;4574;51.072;17.174;2023-06-14T06:58:32;13.60;;;10.77;;
9076;SDS011;4574;51.072;17.174;2023-06-14T07:01:02;13.13;;;10.43;;
9076;SDS011;4574;51.072;17.174;2023-06-14T07:03:30;14.13;;;11.10;;
9076;SDS011;4574;51.072;17.174;2023-06-14T07:05:58;14.60;;;10.30;;
9076;SDS011;4574;51.072;17.174;2023-06-14T07:08:27;12.47;;;10.40;;
9076;SDS011;4574;51.072;17.174;2023-06-14T07:10:55;11.90;;;9.93;;
9076;SDS011;4574;51.072;17.174;2023-06-14T07:13:24;10.97;;;9.20;;
9076;SDS011;4574;51.072;17.174;2023-06-14T07:15:53;12.83;;;10.23;;
9076;SDS011;4574;51.072;17.174;2023-06-14T07:18:24;16.23;;;10.90;;
9076;SDS011;4574;51.072;17.174;2023-06-14T07:20:52;12.87;;;9.83;;
9076;SDS011;4574;51.072;17.174;2023-06-14T07:23:21;18.27;;;11.27;;
9076;SDS011;4574;51.072;17.174;2023-06-14T07:25:49;12.60;;;9.67;;
9076;SDS011;4574;51.072;17.174;2023-06-14T07:28:17;12.47;;;10.03;;
9076;SDS011;4574;51.072;17.174;2023-06-14T07:30:48;14.03;;;9.43;;
9076;SDS011;4574;51.072;17.174;2023-06-14T07:33:16;13.47;;;10.50;;
9076;SDS011;4574;51.072;17.174;2023-06-14T07:35:46;15.13;;;10.97;;
9076;SDS011;4574;51.072;17.174;2023-06-14T07:38:14;11.47;;;9.17;;
9076;SDS011;4574;51.072;17.174;2023-06-14T07:40:42;13.10;;;10.10;;
9076;SDS011;4574;51.072;17.174;2023-06-14T07:43:11;15.87;;;10.30;;
9076;SDS011;4574;51.072;17.174;2023-06-14T07:45:39;12.93;;;9.33;;
9076;SDS011;4574;51.072;17.174;2023-06-14T07:48:19;11.87;;;9.27;;
9076;SDS011;4574;51.072;17.174;2023-06-14T07:50:49;13.47;;;9.40;;
9076;SDS011;4574;51.072;17.174;2023-06-14T07:53:17;12.20;;;9.30;;
9076;SDS011;4574;51.072;17.174;2023-06-14T07:55:45;11.23;;;9.07;;
9076;SDS011;4574;51.072;17.174;2023-06-14T07:58:19;12.30;;;9.60;;
9076;SDS011;4574;51.072;17.174;2023-06-14T08:00:47;11.07;;;9.40;;
9076;SDS011;4574;51.072;17.174;2023-06-14T08:03:16;11.77;;;9.50;;
9076;SDS011;4574;51.072;17.174;2023-06-14T08:05:45;12.70;;;8.73;;
9076;SDS011;4574;51.072;17.174;2023-06-14T08:08:15;12.90;;;9.17;;
9076;SDS011;4574;51.072;17.174;2023-06-14T08:10:43;10.60;;;8.47;;
9076;SDS011;4574;51.072;17.174;2023-06-14T08:13:12;10.63;;;8.97;;
9076;SDS011;4574;51.072;17.174;2023-06-14T08:15:40;9.87;;;8.00;;
9076;SDS011;4574;51.072;17.174;2023-06-14T08:18:08;10.73;;;8.83;;
9076;SDS011;4574;51.072;17.174;2023-06-14T08:20:36;9.03;;;7.23;;
9076;SDS011;4574;51.072;17.174;2023-06-14T08:23:05;10.03;;;7.70;;
9076;SDS011;4574;51.072;17.174;2023-06-14T08:25:35;8.33;;;6.73;;
9076;SDS011;4574;51.072;17.174;2023-06-14T08:28:03;10.30;;;7.30;;
9076;SDS011;4574;51.072;17.174;2023-06-14T08:30:31;8.97;;;6.90;;
9076;SDS011;4574;51.072;17.174;2023-06-14T08:32:59;9.90;;;6.43;;
9076;SDS011;4574;51.072;17.174;2023-06-14T08:35:41;9.67;;;7.03;;
9076;SDS011;4574;51.072;17.174;2023-06-14T08:38:10;7.40;;;6.60;;
9076;SDS011;4574;51.072;17.174;2023-06-14T08:40:40;7.60;;;6.03;;
9076;SDS011;4574;51.072;17.174;2023-06-14T08:43:09;7.77;;;6.70;;
9076;SDS011;4574;51.072;17.174;2023-06-14T08:45:37;8.57;;;7.00;;
9076;SDS011;4574;51.072;17.174;2023-06-14T08:48:07;8.07;;;6.50;;
9076;SDS011;4574;51.072;17.174;2023-06-14T08:50:36;7.17;;;6.47;;
9076;SDS011;4574;51.072;17.174;2023-06-14T08:53:08;7.10;;;6.40;;
9076;SDS011;4574;51.072;17.174;2023-06-14T08:55:41;10.57;;;6.10;;
9076;SDS011;4574;51.072;17.174;2023-06-14T08:58:10;8.47;;;6.10;;
9076;SDS011;4574;51.072;17.174;2023-06-14T09:00:41;8.67;;;6.57;;
9076;SDS011;4574;51.072;17.174;2023-06-14T09:03:11;7.17;;;5.77;;
9076;SDS011;4574;51.072;17.174;2023-06-14T09:05:41;6.83;;;5.83;;
9076;SDS011;4574;51.072;17.174;2023-06-14T09:08:10;8.97;;;5.37;;
9076;SDS011;4574;51.072;17.174;2023-06-14T09:10:38;5.23;;;4.73;;
9076;SDS011;4574;51.072;17.174;2023-06-14T09:13:09;6.80;;;4.53;;
9076;SDS011;4574;51.072;17.174;2023-06-14T09:15:37;5.00;;;4.50;;
9076;SDS011;4574;51.072;17.174;2023-06-14T09:18:05;5.67;;;4.50;;
9076;SDS011;4574;51.072;17.174;2023-06-14T09:20:33;8.53;;;4.73;;
9076;SDS011;4574;51.072;17.174;2023-06-14T09:23:02;4.37;;;3.97;;
9076;SDS011;4574;51.072;17.174;2023-06-14T09:25:32;7.93;;;4.17;;
9076;SDS011;4574;51.072;17.174;2023-06-14T09:28:10;5.47;;;3.30;;
9076;SDS011;4574;51.072;17.174;2023-06-14T09:30:38;6.43;;;3.67;;
9076;SDS011;4574;51.072;17.174;2023-06-14T09:33:06;3.93;;;3.53;;
9076;SDS011;4574;51.072;17.174;2023-06-14T09:35:35;10.97;;;3.77;;
9076;SDS011;4574;51.072;17.174;2023-06-14T09:38:03;5.47;;;2.93;;
9076;SDS011;4574;51.072;17.174;2023-06-14T09:40:34;8.30;;;3.30;;
9076;SDS011;4574;51.072;17.174;2023-06-14T09:43:04;6.73;;;2.90;;
9076;SDS011;4574;51.072;17.174;2023-06-14T09:45:35;3.80;;;2.60;;
9076;SDS011;4574;51.072;17.174;2023-06-14T09:48:03;5.53;;;2.50;;
9076;SDS011;4574;51.072;17.174;2023-06-14T09:50:33;4.97;;;3.27;;
9076;SDS011;4574;51.072;17.174;2023-06-14T09:53:03;3.13;;;2.53;;
9076;SDS011;4574;51.072;17.174;2023-06-14T09:55:34;6.50;;;3.27;;
9076;SDS011;4574;51.072;17.174;2023-06-14T09:58:04;4.27;;;2.70;;
9076;SDS011;4574;51.072;17.174;2023-06-14T10:00:35;6.67;;;3.43;;
9076;SDS011;4574;51.072;17.174;2023-06-14T10:03:05;4.43;;;2.90;;
9076;SDS011;4574;51.072;17.174;2023-06-14T10:05:34;4.80;;;2.90;;
9076;SDS011;4574;51.072;17.174;2023-06-14T10:08:04;3.83;;;3.20;;
9076;SDS011;4574;51.072;17.174;2023-06-14T10:10:35;6.00;;;3.20;;
9076;SDS011;4574;51.072;17.174;2023-06-14T10:13:06;3.40;;;3.10;;
9076;SDS011;4574;51.072;17.174;2023-06-14T10:15:38;4.23;;;2.90;;
9076;SDS011;4574;51.072;17.174;2023-06-14T10:18:11;4.03;;;3.07;;
9076;SDS011;4574;51.072;17.174;2023-06-14T10:20:50;4.20;;;3.10;;
9076;SDS011;4574;51.072;17.174;2023-06-14T10:23:20;4.87;;;3.17;;
9076;SDS011;4574;51.072;17.174;2023-06-14T10:25:49;3.57;;;3.17;;
9076;SDS011;4574;51.072;17.174;2023-06-14T10:28:18;5.63;;;2.97;;
9076;SDS011;4574;51.072;17.174;2023-06-14T10:31:03;5.20;;;3.10;;
9076;SDS011;4574;51.072;17.174;2023-06-14T10:33:31;5.80;;;4.27;;
9076;SDS011;4574;51.072;17.174;2023-06-14T10:38:48;4.60;;;3.07;;
9076;SDS011;4574;51.072;17.174;2023-06-14T10:41:25;7.13;;;3.20;;
9076;SDS011;4574;51.072;17.174;2023-06-14T10:46:38;8.03;;;3.00;;
9076;SDS011;4574;51.072;17.174;2023-06-14T10:49:10;8.10;;;2.87;;
9076;SDS011;4574;51.072;17.174;2023-06-14T10:51:38;6.93;;;2.97;;
9076;SDS011;4574;51.072;17.174;2023-06-14T10:54:13;4.37;;;2.87;;
9076;SDS011;4574;51.072;17.174;2023-06-14T10:56:45;4.70;;;2.97;;
9076;SDS011;4574;51.072;17.174;2023-06-14T10:59:14;3.20;;;2.70;;
9076;SDS011;4574;51.072;17.174;2023-06-14T11:01:46;6.20;;;3.17;;
9076;SDS011;4574;51.072;17.174;2023-06-14T11:04:18;3.40;;;3.10;;
9076;SDS011;4574;51.072;17.174;2023-06-14T11:06:49;3.80;;;3.17;;
9076;SDS011;4574;51.072;17.174;2023-06-14T11:12:06;3.83;;;2.70;;
9076;SDS011;4574;51.072;17.174;2023-06-14T11:14:36;3.50;;;3.20;;
9076;SDS011;4574;51.072;17.174;2023-06-14T11:17:06;5.67;;;3.10;;
9076;SDS011;4574;51.072;17.174;2023-06-14T11:19:34;8.73;;;3.40;;
9076;SDS011;4574;51.072;17.174;2023-06-14T11:22:03;3.47;;;2.90;;
9076;SDS011;4574;51.072;17.174;2023-06-14T11:24:32;8.10;;;2.87;;
9076;SDS011;4574;51.072;17.174;2023-06-14T11:27:00;4.10;;;2.97;;
9076;SDS011;4574;51.072;17.174;2023-06-14T11:29:28;4.70;;;2.60;;
9076;SDS011;4574;51.072;17.174;2023-06-14T11:31:57;4.63;;;2.93;;
9076;SDS011;4574;51.072;17.174;2023-06-14T11:34:26;5.70;;;2.90;;
9076;SDS011;4574;51.072;17.174;2023-06-14T11:36:55;3.33;;;2.83;;
9076;SDS011;4574;51.072;17.174;2023-06-14T11:39:24;5.17;;;3.00;;
9076;SDS011;4574;51.072;17.174;2023-06-14T11:41:52;4.47;;;2.67;;
9076;SDS011;4574;51.072;17.174;2023-06-14T11:44:22;3.10;;;2.80;;
9076;SDS011;4574;51.072;17.174;2023-06-14T11:46:50;4.53;;;2.70;;
9076;SDS011;4574;51.072;17.174;2023-06-14T11:49:18;4.93;;;3.00;;
9076;SDS011;4574;51.072;17.174;2023-06-14T11:51:48;5.53;;;3.33;;
9076;SDS011;4574;51.072;17.174;2023-06-14T11:54:16;3.50;;;2.67;;
9076;SDS011;4574;51.072;17.174;2023-06-14T11:56:45;4.37;;;2.83;;
9076;SDS011;4574;51.072;17.174;2023-06-14T11:59:13;9.07;;;2.80;;
9076;SDS011;4574;51.072;17.174;2023-06-14T12:01:42;4.30;;;2.90;;
9076;SDS011;4574;51.072;17.174;2023-06-14T12:04:12;3.00;;;2.60;;
9076;SDS011;4574;51.072;17.174;2023-06-14T12:06:40;4.67;;;2.67;;
9076;SDS011;4574;51.072;17.174;2023-06-14T12:09:09;3.57;;;2.47;;
9076;SDS011;4574;51.072;17.174;2023-06-14T12:11:40;4.03;;;2.57;;
9076;SDS011;4574;51.072;17.174;2023-06-14T12:14:08;5.17;;;3.20;;
9076;SDS011;4574;51.072;17.174;2023-06-14T12:16:37;2.90;;;2.60;;
9076;SDS011;4574;51.072;17.174;2023-06-14T12:19:12;6.40;;;2.30;;
9076;SDS011;4574;51.072;17.174;2023-06-14T12:21:40;6.00;;;2.67;;
9076;SDS011;4574;51.072;17.174;2023-06-14T12:24:11;3.57;;;2.67;;
9076;SDS011;4574;51.072;17.174;2023-06-14T12:26:40;6.17;;;2.83;;
9076;SDS011;4574;51.072;17.174;2023-06-14T12:29:09;4.13;;;3.07;;
9076;SDS011;4574;51.072;17.174;2023-06-14T12:31:39;4.80;;;2.70;;
9076;SDS011;4574;51.072;17.174;2023-06-14T12:34:08;4.43;;;2.70;;
9076;SDS011;4574;51.072;17.174;2023-06-14T12:36:37;2.47;;;2.23;;
9076;SDS011;4574;51.072;17.174;2023-06-14T12:39:12;3.20;;;2.53;;
9076;SDS011;4574;51.072;17.174;2023-06-14T12:41:41;6.23;;;2.70;;
9076;SDS011;4574;51.072;17.174;2023-06-14T12:44:09;7.20;;;2.80;;
9076;SDS011;4574;51.072;17.174;2023-06-14T12:46:38;5.80;;;3.23;;
9076;SDS011;4574;51.072;17.174;2023-06-14T12:49:08;3.67;;;2.50;;
9076;SDS011;4574;51.072;17.174;2023-06-14T12:51:36;3.10;;;2.80;;
9076;SDS011;4574;51.072;17.174;2023-06-14T12:54:05;3.13;;;2.93;;
9076;SDS011;4574;51.072;17.174;2023-06-14T12:56:34;5.67;;;3.10;;
9076;SDS011;4574;51.072;17.174;2023-06-14T12:59:03;5.67;;;2.67;;
9076;SDS011;4574;51.072;17.174;2023-06-14T13:01:33;6.90;;;4.70;;
9076;SDS011;4574;51.072;17.174;2023-06-14T13:04:01;6.07;;;3.00;;
9076;SDS011;4574;51.072;17.174;2023-06-14T13:06:29;5.27;;;3.10;;
9076;SDS011;4574;51.072;17.174;2023-06-14T13:08:58;5.43;;;3.00;;
9076;SDS011;4574;51.072;17.174;2023-06-14T13:11:26;5.60;;;3.40;;
9076;SDS011;4574;51.072;17.174;2023-06-14T13:13:56;4.63;;;3.10;;
9076;SDS011;4574;51.072;17.174;2023-06-14T13:16:24;5.73;;;3.30;;
9076;SDS011;4574;51.072;17.174;2023-06-14T13:18:52;3.30;;;2.83;;
9076;SDS011;4574;51.072;17.174;2023-06-14T13:21:20;5.27;;;3.00;;
9076;SDS011;4574;51.072;17.174;2023-06-14T13:23:49;3.67;;;3.00;;
9076;SDS011;4574;51.072;17.174;2023-06-14T13:26:17;5.70;;;2.97;;
9076;SDS011;4574;51.072;17.174;2023-06-14T13:28:46;8.87;;;3.07;;
9076;SDS011;4574;51.072;17.174;2023-06-14T13:31:16;5.67;;;3.13;;
9076;SDS011;4574;51.072;17.174;2023-06-14T13:33:44;5.53;;;2.73;;
9076;SDS011;4574;51.072;17.174;2023-06-14T13:36:12;4.63;;;3.27;;
9076;SDS011;4574;51.072;17.174;2023-06-14T13:38:40;5.37;;;3.00;;
9076;SDS011;4574;51.072;17.174;2023-06-14T13:41:08;9.13;;;3.33;;
9076;SDS011;4574;51.072;17.174;2023-06-14T13:43:37;6.73;;;2.67;;
9076;SDS011;4574;51.072;17.174;2023-06-14T13:46:05;7.13;;;2.87;;
9076;SDS011;4574;51.072;17.174;2023-06-14T13:48:35;3.20;;;2.37;;
9076;SDS011;4574;51.072;17.174;2023-06-14T13:51:03;3.50;;;2.70;;
9076;SDS011;4574;51.072;17.174;2023-06-14T13:53:32;4.20;;;2.90;;
9076;SDS011;4574;51.072;17.174;2023-06-14T13:56:00;4.50;;;2.57;;
9076;SDS011;4574;51.072;17.174;2023-06-14T13:58:28;5.27;;;2.60;;
9076;SDS011;4574;51.072;17.174;2023-06-14T14:00:56;4.60;;;2.53;;
9076;SDS011;4574;51.072;17.174;2023-06-14T14:03:28;4.23;;;2.40;;
9076;SDS011;4574;51.072;17.174;2023-06-14T14:05:59;4.93;;;2.30;;
9076;SDS011;4574;51.072;17.174;2023-06-14T14:08:28;2.90;;;2.53;;
9076;SDS011;4574;51.072;17.174;2023-06-14T14:10:56;3.60;;;2.37;;
9076;SDS011;4574;51.072;17.174;2023-06-14T14:13:25;5.77;;;2.70;;
9076;SDS011;4574;51.072;17.174;2023-06-14T14:15:53;6.43;;;2.40;;
9076;SDS011;4574;51.072;17.174;2023-06-14T14:18:22;3.60;;;2.70;;
9076;SDS011;4574;51.072;17.174;2023-06-14T14:20:51;2.93;;;2.50;;
9076;SDS011;4574;51.072;17.174;2023-06-14T14:23:21;5.50;;;2.63;;
9076;SDS011;4574;51.072;17.174;2023-06-14T14:25:49;4.30;;;2.60;;
9076;SDS011;4574;51.072;17.174;2023-06-14T14:28:17;4.30;;;2.50;;
9076;SDS011;4574;51.072;17.174;2023-06-14T14:30:47;6.07;;;2.70;;
9076;SDS011;4574;51.072;17.174;2023-06-14T14:33:15;8.20;;;3.03;;
9076;SDS011;4574;51.072;17.174;2023-06-14T14:35:44;6.93;;;3.70;;
9076;SDS011;4574;51.072;17.174;2023-06-14T14:38:13;7.97;;;4.27;;
9076;SDS011;4574;51.072;17.174;2023-06-14T14:40:43;6.83;;;4.00;;
9076;SDS011;4574;51.072;17.174;2023-06-14T14:43:11;7.60;;;4.27;;
9076;SDS011;4574;51.072;17.174;2023-06-14T14:45:39;6.77;;;4.60;;
9076;SDS011;4574;51.072;17.174;2023-06-14T14:48:08;9.40;;;8.37;;
9076;SDS011;4574;51.072;17.174;2023-06-14T14:50:36;13.27;;;9.73;;
9076;SDS011;4574;51.072;17.174;2023-06-14T14:53:05;10.33;;;8.70;;
9076;SDS011;4574;51.072;17.174;2023-06-14T14:55:33;12.63;;;8.53;;
9076;SDS011;4574;51.072;17.174;2023-06-14T14:58:05;9.03;;;8.00;;
9076;SDS011;4574;51.072;17.174;2023-06-14T15:00:34;9.67;;;6.93;;
9076;SDS011;4574;51.072;17.174;2023-06-14T15:03:03;10.30;;;8.60;;
9076;SDS011;4574;51.072;17.174;2023-06-14T15:05:32;10.37;;;8.13;;
9076;SDS011;4574;51.072;17.174;2023-06-14T15:08:00;16.30;;;10.47;;
9076;SDS011;4574;51.072;17.174;2023-06-14T15:10:28;13.23;;;7.90;;
9076;SDS011;4574;51.072;17.174;2023-06-14T15:12:57;8.13;;;6.93;;
9076;SDS011;4574;51.072;17.174;2023-06-14T15:15:27;11.20;;;6.80;;
9076;SDS011;4574;51.072;17.174;2023-06-14T15:17:56;10.67;;;6.00;;
9076;SDS011;4574;51.072;17.174;2023-06-14T15:20:24;7.10;;;5.80;;